WJA112 CYYC-CYVR
Flight info
| Callsign | WJA112 |
|---|---|
| Flight time | 1h 1m |
| Altitude | 36000 |
| Route | BOTAG Q894 BOOTH CANUC5 |
| Aircraft | B738/M-SDGIJ1LRWY/SB1 |
Departure
| Time | 2026-05-03 21:19 |
|---|---|
| Airport | Calgary International Airport (CYYC) |
Arrival
| Time | 2026-05-03 22:20 |
|---|---|
| Airport | Vancouver International Airport (CYVR) |
| Time | Latitude | Longitude | Altitude | Speed | Heading |
|---|---|---|---|---|---|
| 2026-05-03 20:51 | 51.12835 | -114.00928 | 3558 ft | 0 kts | 60° |
| 2026-05-03 21:07 | 51.12833 | -114.00932 | 3558 ft | 2 kts | 60° |
| 2026-05-03 21:07 | 51.12826 | -114.00952 | 3557 ft | 2 kts | 60° |
| 2026-05-03 21:07 | 51.12819 | -114.00973 | 3556 ft | 1 kts | 60° |
| 2026-05-03 21:07 | 51.12814 | -114.00986 | 3556 ft | 2 kts | 51° |
| 2026-05-03 21:08 | 51.12801 | -114.01000 | 3555 ft | 2 kts | 20° |
| 2026-05-03 21:08 | 51.12787 | -114.01004 | 3556 ft | 2 kts | 353° |
| 2026-05-03 21:08 | 51.12772 | -114.00996 | 3556 ft | 2 kts | 327° |
| 2026-05-03 21:08 | 51.12764 | -114.00985 | 3557 ft | 0 kts | 307° |
| 2026-05-03 21:09 | 51.12760 | -114.00975 | 3557 ft | 0 kts | 303° |
| 2026-05-03 21:09 | 51.12759 | -114.00975 | 3557 ft | 0 kts | 303° |
| 2026-05-03 21:11 | 51.12763 | -114.00983 | 3557 ft | 4 kts | 303° |
| 2026-05-03 21:11 | 51.12801 | -114.01067 | 3556 ft | 11 kts | 304° |
| 2026-05-03 21:12 | 51.12804 | -114.01181 | 3555 ft | 11 kts | 228° |
| 2026-05-03 21:12 | 51.12741 | -114.01270 | 3553 ft | 12 kts | 220° |
| 2026-05-03 21:12 | 51.12668 | -114.01369 | 3552 ft | 14 kts | 221° |
| 2026-05-03 21:12 | 51.12594 | -114.01472 | 3551 ft | 14 kts | 222° |
| 2026-05-03 21:13 | 51.12506 | -114.01565 | 3550 ft | 16 kts | 189° |
| 2026-05-03 21:13 | 51.12380 | -114.01569 | 3550 ft | 19 kts | 180° |
| 2026-05-03 21:13 | 51.12247 | -114.01569 | 3549 ft | 19 kts | 180° |
| 2026-05-03 21:13 | 51.12119 | -114.01604 | 3549 ft | 18 kts | 202° |
| 2026-05-03 21:14 | 51.12011 | -114.01704 | 3550 ft | 17 kts | 212° |
| 2026-05-03 21:14 | 51.11904 | -114.01792 | 3550 ft | 16 kts | 195° |
| 2026-05-03 21:14 | 51.11791 | -114.01796 | 3550 ft | 16 kts | 180° |
| 2026-05-03 21:14 | 51.11674 | -114.01797 | 3550 ft | 17 kts | 180° |
| 2026-05-03 21:15 | 51.11543 | -114.01798 | 3550 ft | 19 kts | 179° |
| 2026-05-03 21:15 | 51.11409 | -114.01798 | 3549 ft | 20 kts | 180° |
| 2026-05-03 21:15 | 51.11246 | -114.01797 | 3548 ft | 26 kts | 180° |
| 2026-05-03 21:15 | 51.11046 | -114.01796 | 3547 ft | 29 kts | 178° |
| 2026-05-03 21:16 | 51.10842 | -114.01797 | 3546 ft | 29 kts | 181° |
| 2026-05-03 21:16 | 51.10638 | -114.01800 | 3545 ft | 29 kts | 180° |
| 2026-05-03 21:16 | 51.10436 | -114.01800 | 3544 ft | 28 kts | 181° |
| 2026-05-03 21:16 | 51.10239 | -114.01801 | 3543 ft | 28 kts | 180° |
| 2026-05-03 21:17 | 51.10040 | -114.01801 | 3543 ft | 28 kts | 180° |
| 2026-05-03 21:17 | 51.09910 | -114.01800 | 3543 ft | 27 kts | 179° |
| 2026-05-03 21:17 | 51.09701 | -114.01863 | 3543 ft | 20 kts | 249° |
| 2026-05-03 21:17 | 51.09693 | -114.01936 | 3542 ft | 0 kts | 266° |
| 2026-05-03 21:18 | 51.09693 | -114.01939 | 3542 ft | 2 kts | 266° |
| 2026-05-03 21:18 | 51.09695 | -114.02080 | 3541 ft | 17 kts | 282° |
| 2026-05-03 21:18 | 51.09789 | -114.02138 | 3541 ft | 15 kts | 1° |
| 2026-05-03 21:18 | 51.09994 | -114.02137 | 3541 ft | 60 kts | 1° |
| 2026-05-03 21:19 | 51.10657 | -114.02145 | 3543 ft | 128 kts | 360° |
| 2026-05-03 21:19 | 51.11746 | -114.02129 | 3553 ft | 183 kts | 359° |
| 2026-05-03 21:19 | 51.13046 | -114.02144 | 4190 ft | 193 kts | 358° |
| 2026-05-03 21:19 | 51.14388 | -114.02210 | 5059 ft | 197 kts | 358° |
| 2026-05-03 21:20 | 51.15731 | -114.02316 | 5779 ft | 200 kts | 357° |
| 2026-05-03 21:20 | 51.17165 | -114.02454 | 6271 ft | 214 kts | 357° |
| 2026-05-03 21:20 | 51.18676 | -114.02587 | 6926 ft | 220 kts | 356° |
| 2026-05-03 21:20 | 51.20204 | -114.02858 | 7403 ft | 233 kts | 342° |
| 2026-05-03 21:21 | 51.21629 | -114.04233 | 7794 ft | 251 kts | 312° |
| 2026-05-03 21:21 | 51.22501 | -114.06680 | 8352 ft | 264 kts | 285° |
| 2026-05-03 21:21 | 51.22636 | -114.09616 | 8968 ft | 274 kts | 267° |
| 2026-05-03 21:21 | 51.22433 | -114.12620 | 9766 ft | 276 kts | 264° |
| 2026-05-03 21:22 | 51.22056 | -114.15599 | 10546 ft | 281 kts | 251° |
| 2026-05-03 21:22 | 51.20918 | -114.18211 | 10959 ft | 303 kts | 226° |
| 2026-05-03 21:22 | 51.19218 | -114.20383 | 11361 ft | 321 kts | 221° |
| 2026-05-03 21:22 | 51.17498 | -114.22715 | 11726 ft | 335 kts | 229° |
| 2026-05-03 21:23 | 51.15949 | -114.25569 | 12200 ft | 343 kts | 239° |
| 2026-05-03 21:23 | 51.14736 | -114.28805 | 12848 ft | 346 kts | 248° |
| 2026-05-03 21:23 | 51.13766 | -114.32262 | 13602 ft | 346 kts | 252° |
| 2026-05-03 21:23 | 51.12909 | -114.35853 | 14290 ft | 350 kts | 255° |
| 2026-05-03 21:24 | 51.12077 | -114.39525 | 14961 ft | 355 kts | 255° |
| 2026-05-03 21:24 | 51.11247 | -114.43175 | 15708 ft | 357 kts | 256° |
| 2026-05-03 21:24 | 51.10382 | -114.46903 | 16333 ft | 363 kts | 255° |
| 2026-05-03 21:24 | 51.09502 | -114.50630 | 17000 ft | 367 kts | 256° |
| 2026-05-03 21:25 | 51.08596 | -114.54408 | 17740 ft | 368 kts | 256° |
| 2026-05-03 21:25 | 51.07674 | -114.58220 | 18411 ft | 371 kts | 256° |
| 2026-05-03 21:25 | 51.06791 | -114.62101 | 19035 ft | 373 kts | 259° |
| 2026-05-03 21:25 | 51.06067 | -114.66045 | 19643 ft | 375 kts | 261° |
| 2026-05-03 21:26 | 51.05437 | -114.70056 | 20253 ft | 378 kts | 262° |
| 2026-05-03 21:26 | 51.04829 | -114.74147 | 20850 ft | 381 kts | 262° |
| 2026-05-03 21:26 | 51.04223 | -114.78238 | 21366 ft | 387 kts | 262° |
| 2026-05-03 21:26 | 51.03595 | -114.82378 | 22030 ft | 388 kts | 262° |
| 2026-05-03 21:27 | 51.02949 | -114.86528 | 22539 ft | 393 kts | 261° |
| 2026-05-03 21:27 | 51.02280 | -114.90748 | 23162 ft | 395 kts | 261° |
| 2026-05-03 21:27 | 51.01595 | -114.95015 | 23680 ft | 399 kts | 261° |
| 2026-05-03 21:27 | 51.00911 | -114.99251 | 24153 ft | 403 kts | 261° |
| 2026-05-03 21:28 | 51.00207 | -115.03580 | 24685 ft | 406 kts | 261° |
| 2026-05-03 21:28 | 50.99505 | -115.07880 | 25168 ft | 410 kts | 261° |
| 2026-05-03 21:28 | 50.98785 | -115.12286 | 25626 ft | 413 kts | 261° |
| 2026-05-03 21:28 | 50.98060 | -115.16702 | 26091 ft | 416 kts | 261° |
| 2026-05-03 21:29 | 50.97338 | -115.21096 | 26514 ft | 419 kts | 261° |
| 2026-05-03 21:29 | 50.96596 | -115.25596 | 26983 ft | 422 kts | 261° |
| 2026-05-03 21:29 | 50.95857 | -115.30080 | 27411 ft | 425 kts | 261° |
| 2026-05-03 21:29 | 50.95110 | -115.34593 | 27869 ft | 427 kts | 260° |
| 2026-05-03 21:30 | 50.94347 | -115.39188 | 28302 ft | 430 kts | 261° |
| 2026-05-03 21:30 | 50.93589 | -115.43739 | 28642 ft | 434 kts | 261° |
| 2026-05-03 21:30 | 50.92820 | -115.48344 | 29041 ft | 437 kts | 260° |
| 2026-05-03 21:30 | 50.92038 | -115.53016 | 29499 ft | 438 kts | 261° |
| 2026-05-03 21:31 | 50.91260 | -115.57645 | 29900 ft | 440 kts | 261° |
| 2026-05-03 21:31 | 50.90465 | -115.62368 | 30254 ft | 443 kts | 260° |
| 2026-05-03 21:31 | 50.89675 | -115.67042 | 30602 ft | 446 kts | 259° |
| 2026-05-03 21:31 | 50.88860 | -115.71855 | 31099 ft | 445 kts | 259° |
| 2026-05-03 21:32 | 50.88061 | -115.76550 | 31601 ft | 444 kts | 259° |
| 2026-05-03 21:32 | 50.87252 | -115.81291 | 32126 ft | 442 kts | 260° |
| 2026-05-03 21:32 | 50.86461 | -115.85909 | 32648 ft | 439 kts | 260° |
| 2026-05-03 21:32 | 50.85659 | -115.90587 | 33083 ft | 438 kts | 260° |
| 2026-05-03 21:33 | 50.84868 | -115.95185 | 33584 ft | 436 kts | 261° |
| 2026-05-03 21:33 | 50.84073 | -115.99792 | 34072 ft | 433 kts | 260° |
| 2026-05-03 21:33 | 50.83287 | -116.04342 | 34469 ft | 432 kts | 261° |
| 2026-05-03 21:33 | 50.82496 | -116.08924 | 34792 ft | 432 kts | 261° |
| 2026-05-03 21:34 | 50.81707 | -116.13482 | 35078 ft | 432 kts | 261° |
| 2026-05-03 21:34 | 50.80905 | -116.18099 | 35390 ft | 431 kts | 261° |
| 2026-05-03 21:34 | 50.80107 | -116.22689 | 35492 ft | 436 kts | 261° |
| 2026-05-03 21:34 | 50.79303 | -116.27303 | 35706 ft | 437 kts | 261° |
| 2026-05-03 21:35 | 50.78491 | -116.31946 | 35922 ft | 438 kts | 261° |
| 2026-05-03 21:35 | 50.77679 | -116.36581 | 36059 ft | 440 kts | 261° |
| 2026-05-03 21:35 | 50.76053 | -116.45805 | 36067 ft | 434 kts | 260° |
| 2026-05-03 21:36 | 50.74353 | -116.54999 | 36075 ft | 435 kts | 259° |
| 2026-05-03 21:36 | 50.72727 | -116.63314 | 36080 ft | 438 kts | 259° |
| 2026-05-03 21:37 | 50.70918 | -116.72504 | 36082 ft | 440 kts | 258° |
| 2026-05-03 21:37 | 50.69115 | -116.81665 | 36079 ft | 441 kts | 258° |
| 2026-05-03 21:38 | 50.67296 | -116.90884 | 36078 ft | 441 kts | 258° |
| 2026-05-03 21:38 | 50.65488 | -117.00017 | 36070 ft | 439 kts | 258° |
| 2026-05-03 21:39 | 50.63645 | -117.09300 | 36073 ft | 441 kts | 258° |
| 2026-05-03 21:39 | 50.61806 | -117.18518 | 36073 ft | 441 kts | 259° |
| 2026-05-03 21:40 | 50.59964 | -117.27706 | 36072 ft | 442 kts | 259° |
| 2026-05-03 21:40 | 50.58115 | -117.36914 | 36067 ft | 442 kts | 258° |
| 2026-05-03 21:41 | 50.57179 | -117.41553 | 35946 ft | 446 kts | 259° |
| 2026-05-03 21:41 | 50.56244 | -117.46167 | 36070 ft | 441 kts | 259° |
| 2026-05-03 21:41 | 50.54374 | -117.55383 | 35941 ft | 448 kts | 259° |
| 2026-05-03 21:42 | 50.53422 | -117.60049 | 36057 ft | 442 kts | 258° |
| 2026-05-03 21:42 | 50.52492 | -117.64599 | 36287 ft | 447 kts | 259° |
| 2026-05-03 21:42 | 50.51534 | -117.69282 | 36053 ft | 446 kts | 258° |
| 2026-05-03 21:42 | 50.50579 | -117.73920 | 36040 ft | 443 kts | 258° |
| 2026-05-03 21:43 | 50.48682 | -117.83137 | 36028 ft | 447 kts | 258° |
| 2026-05-03 21:43 | 50.46760 | -117.92441 | 36013 ft | 449 kts | 258° |
| 2026-05-03 21:44 | 50.44830 | -118.01713 | 36008 ft | 446 kts | 258° |
| 2026-05-03 21:44 | 50.42891 | -118.10986 | 36041 ft | 448 kts | 258° |
| 2026-05-03 21:45 | 50.40954 | -118.20233 | 36054 ft | 449 kts | 258° |
| 2026-05-03 21:45 | 50.38986 | -118.29584 | 36059 ft | 451 kts | 258° |
| 2026-05-03 21:46 | 50.37020 | -118.38872 | 36057 ft | 451 kts | 258° |
| 2026-05-03 21:46 | 50.35053 | -118.48103 | 36042 ft | 450 kts | 258° |
| 2026-05-03 21:47 | 50.33069 | -118.57394 | 36018 ft | 452 kts | 258° |
| 2026-05-03 21:47 | 50.31060 | -118.66737 | 36008 ft | 453 kts | 257° |
| 2026-05-03 21:48 | 50.29047 | -118.76060 | 35998 ft | 453 kts | 257° |
| 2026-05-03 21:48 | 50.27036 | -118.85341 | 36028 ft | 455 kts | 257° |
| 2026-05-03 21:49 | 50.24999 | -118.94705 | 36028 ft | 454 kts | 257° |
| 2026-05-03 21:49 | 50.22963 | -119.04016 | 36037 ft | 455 kts | 257° |
| 2026-05-03 21:50 | 50.20914 | -119.13347 | 36033 ft | 457 kts | 257° |
| 2026-05-03 21:50 | 50.18846 | -119.22719 | 36016 ft | 456 kts | 257° |
| 2026-05-03 21:51 | 50.16767 | -119.32102 | 36005 ft | 458 kts | 257° |
| 2026-05-03 21:51 | 50.14691 | -119.41434 | 36007 ft | 461 kts | 257° |
| 2026-05-03 21:52 | 50.12576 | -119.50884 | 35998 ft | 460 kts | 257° |
| 2026-05-03 21:52 | 50.10471 | -119.60242 | 36035 ft | 458 kts | 258° |
| 2026-05-03 21:53 | 50.08354 | -119.69623 | 36077 ft | 461 kts | 257° |
| 2026-05-03 21:53 | 50.06230 | -119.79009 | 36100 ft | 464 kts | 257° |
| 2026-05-03 21:54 | 50.04082 | -119.88448 | 36091 ft | 463 kts | 256° |
| 2026-05-03 21:54 | 50.01920 | -119.97902 | 35791 ft | 466 kts | 257° |
| 2026-05-03 21:55 | 50.00834 | -120.02632 | 35492 ft | 464 kts | 257° |
| 2026-05-03 21:55 | 49.99738 | -120.07395 | 35201 ft | 465 kts | 257° |
| 2026-05-03 21:55 | 49.98659 | -120.12076 | 34902 ft | 464 kts | 257° |
| 2026-05-03 21:55 | 49.97560 | -120.16824 | 34598 ft | 462 kts | 257° |
| 2026-05-03 21:56 | 49.96491 | -120.21438 | 34310 ft | 461 kts | 257° |
| 2026-05-03 21:56 | 49.95397 | -120.26145 | 34032 ft | 459 kts | 257° |
| 2026-05-03 21:56 | 49.94333 | -120.30715 | 33768 ft | 456 kts | 256° |
| 2026-05-03 21:56 | 49.93254 | -120.35341 | 33492 ft | 456 kts | 256° |
| 2026-05-03 21:57 | 49.92177 | -120.39960 | 33220 ft | 455 kts | 256° |
| 2026-05-03 21:57 | 49.91102 | -120.44555 | 32952 ft | 450 kts | 256° |
| 2026-05-03 21:57 | 49.90048 | -120.49040 | 32674 ft | 445 kts | 256° |
| 2026-05-03 21:57 | 49.88990 | -120.53536 | 32408 ft | 445 kts | 256° |
| 2026-05-03 21:58 | 49.87928 | -120.58051 | 32134 ft | 444 kts | 256° |
| 2026-05-03 21:58 | 49.86867 | -120.62552 | 31867 ft | 442 kts | 255° |
| 2026-05-03 21:58 | 49.85822 | -120.66969 | 31563 ft | 434 kts | 254° |
| 2026-05-03 21:58 | 49.84790 | -120.71313 | 31132 ft | 429 kts | 254° |
| 2026-05-03 21:59 | 49.83779 | -120.75566 | 30658 ft | 425 kts | 254° |
| 2026-05-03 21:59 | 49.82757 | -120.79864 | 30164 ft | 421 kts | 253° |
| 2026-05-03 21:59 | 49.81754 | -120.84074 | 29689 ft | 417 kts | 254° |
| 2026-05-03 21:59 | 49.80764 | -120.88226 | 29201 ft | 413 kts | 253° |
| 2026-05-03 22:00 | 49.79777 | -120.92352 | 28744 ft | 408 kts | 253° |
| 2026-05-03 22:00 | 49.78794 | -120.96454 | 28254 ft | 405 kts | 253° |
| 2026-05-03 22:00 | 49.77824 | -121.00486 | 27800 ft | 401 kts | 253° |
| 2026-05-03 22:00 | 49.76862 | -121.04491 | 27331 ft | 397 kts | 253° |
| 2026-05-03 22:01 | 49.75910 | -121.08440 | 26874 ft | 393 kts | 253° |
| 2026-05-03 22:01 | 49.74960 | -121.12376 | 26418 ft | 390 kts | 253° |
| 2026-05-03 22:01 | 49.74023 | -121.16254 | 25957 ft | 386 kts | 253° |
| 2026-05-03 22:01 | 49.73084 | -121.20130 | 25494 ft | 383 kts | 253° |
| 2026-05-03 22:02 | 49.72164 | -121.23926 | 25038 ft | 380 kts | 253° |
| 2026-05-03 22:02 | 49.71235 | -121.27749 | 24565 ft | 376 kts | 252° |
| 2026-05-03 22:02 | 49.70332 | -121.31456 | 24111 ft | 373 kts | 253° |
| 2026-05-03 22:02 | 49.69418 | -121.35204 | 23644 ft | 369 kts | 252° |
| 2026-05-03 22:03 | 49.68520 | -121.38879 | 23190 ft | 366 kts | 252° |
| 2026-05-03 22:03 | 49.67632 | -121.42507 | 22740 ft | 363 kts | 252° |
| 2026-05-03 22:03 | 49.66740 | -121.46143 | 22284 ft | 359 kts | 252° |
| 2026-05-03 22:03 | 49.65864 | -121.49710 | 21833 ft | 357 kts | 252° |
| 2026-05-03 22:04 | 49.64998 | -121.53235 | 21394 ft | 354 kts | 252° |
| 2026-05-03 22:04 | 49.64125 | -121.56780 | 20951 ft | 351 kts | 252° |
| 2026-05-03 22:04 | 49.63268 | -121.60254 | 20500 ft | 348 kts | 252° |
| 2026-05-03 22:04 | 49.62406 | -121.63743 | 20053 ft | 346 kts | 252° |
| 2026-05-03 22:05 | 49.61556 | -121.67178 | 19601 ft | 344 kts | 251° |
| 2026-05-03 22:05 | 49.60706 | -121.70603 | 19170 ft | 341 kts | 251° |
| 2026-05-03 22:05 | 49.59862 | -121.74003 | 18738 ft | 339 kts | 251° |
| 2026-05-03 22:05 | 49.59032 | -121.77340 | 18298 ft | 337 kts | 251° |
| 2026-05-03 22:06 | 49.58193 | -121.80715 | 17855 ft | 335 kts | 251° |
| 2026-05-03 22:06 | 49.57373 | -121.84010 | 17421 ft | 333 kts | 251° |
| 2026-05-03 22:06 | 49.56541 | -121.87337 | 16986 ft | 331 kts | 251° |
| 2026-05-03 22:06 | 49.55718 | -121.90630 | 16562 ft | 329 kts | 251° |
| 2026-05-03 22:07 | 49.54901 | -121.93895 | 16129 ft | 327 kts | 251° |
| 2026-05-03 22:07 | 49.54091 | -121.97121 | 16004 ft | 326 kts | 251° |
| 2026-05-03 22:07 | 49.53252 | -122.00468 | 15988 ft | 342 kts | 251° |
| 2026-05-03 22:07 | 49.52355 | -122.03827 | 15984 ft | 345 kts | 247° |
| 2026-05-03 22:08 | 49.51260 | -122.07123 | 16005 ft | 344 kts | 242° |
| 2026-05-03 22:08 | 49.50045 | -122.10267 | 15971 ft | 345 kts | 240° |
| 2026-05-03 22:08 | 49.48759 | -122.13398 | 15986 ft | 345 kts | 239° |
| 2026-05-03 22:08 | 49.47462 | -122.16515 | 15983 ft | 346 kts | 239° |
| 2026-05-03 22:09 | 49.46193 | -122.19601 | 15970 ft | 345 kts | 239° |
| 2026-05-03 22:09 | 49.44926 | -122.22742 | 15615 ft | 347 kts | 240° |
| 2026-05-03 22:09 | 49.43650 | -122.25949 | 14752 ft | 359 kts | 240° |
| 2026-05-03 22:10 | 49.41085 | -122.32411 | 13800 ft | 344 kts | 239° |
| 2026-05-03 22:10 | 49.39780 | -122.35376 | 13432 ft | 331 kts | 234° |
| 2026-05-03 22:10 | 49.38349 | -122.38120 | 12714 ft | 331 kts | 230° |
| 2026-05-03 22:10 | 49.36842 | -122.40743 | 11949 ft | 331 kts | 229° |
| 2026-05-03 22:11 | 49.35287 | -122.43360 | 11188 ft | 331 kts | 228° |
| 2026-05-03 22:11 | 49.33753 | -122.45921 | 10426 ft | 330 kts | 228° |
| 2026-05-03 22:11 | 49.32201 | -122.48518 | 9641 ft | 329 kts | 228° |
| 2026-05-03 22:11 | 49.30674 | -122.51091 | 8890 ft | 327 kts | 228° |
| 2026-05-03 22:12 | 49.29180 | -122.53619 | 8300 ft | 319 kts | 228° |
| 2026-05-03 22:12 | 49.27710 | -122.56119 | 7854 ft | 308 kts | 228° |
| 2026-05-03 22:12 | 49.26314 | -122.58500 | 7462 ft | 297 kts | 229° |
| 2026-05-03 22:12 | 49.24974 | -122.60790 | 7079 ft | 286 kts | 229° |
| 2026-05-03 22:13 | 49.23674 | -122.63010 | 6756 ft | 276 kts | 229° |
| 2026-05-03 22:13 | 49.22405 | -122.65176 | 6450 ft | 269 kts | 228° |
| 2026-05-03 22:13 | 49.21158 | -122.67321 | 6083 ft | 269 kts | 230° |
| 2026-05-03 22:13 | 49.20067 | -122.69603 | 5774 ft | 268 kts | 237° |
| 2026-05-03 22:14 | 49.19080 | -122.72012 | 5452 ft | 266 kts | 239° |
| 2026-05-03 22:14 | 49.18129 | -122.74435 | 5131 ft | 265 kts | 239° |
| 2026-05-03 22:14 | 49.17189 | -122.76812 | 4920 ft | 259 kts | 239° |
| 2026-05-03 22:14 | 49.16349 | -122.79176 | 4919 ft | 244 kts | 250° |
| 2026-05-03 22:15 | 49.16043 | -122.81645 | 4755 ft | 240 kts | 272° |
| 2026-05-03 22:15 | 49.16257 | -122.84206 | 4287 ft | 247 kts | 284° |
| 2026-05-03 22:15 | 49.16645 | -122.86755 | 3841 ft | 241 kts | 283° |
| 2026-05-03 22:15 | 49.16949 | -122.89159 | 3540 ft | 226 kts | 281° |
| 2026-05-03 22:16 | 49.17205 | -122.91470 | 3215 ft | 212 kts | 281° |
| 2026-05-03 22:16 | 49.17446 | -122.93594 | 2928 ft | 199 kts | 281° |
| 2026-05-03 22:16 | 49.17685 | -122.95595 | 2687 ft | 185 kts | 282° |
| 2026-05-03 22:16 | 49.17903 | -122.97460 | 2442 ft | 171 kts | 282° |
| 2026-05-03 22:17 | 49.18103 | -122.99182 | 2217 ft | 161 kts | 282° |
| 2026-05-03 22:17 | 49.18301 | -123.00863 | 1980 ft | 160 kts | 282° |
| 2026-05-03 22:17 | 49.18492 | -123.02512 | 1778 ft | 158 kts | 282° |
| 2026-05-03 22:17 | 49.18682 | -123.04160 | 1566 ft | 157 kts | 282° |
| 2026-05-03 22:18 | 49.18874 | -123.05803 | 1357 ft | 154 kts | 282° |
| 2026-05-03 22:18 | 49.19058 | -123.07388 | 1153 ft | 152 kts | 282° |
| 2026-05-03 22:18 | 49.19243 | -123.08969 | 946 ft | 151 kts | 282° |
| 2026-05-03 22:18 | 49.19429 | -123.10546 | 764 ft | 149 kts | 281° |
| 2026-05-03 22:19 | 49.19596 | -123.12090 | 550 ft | 145 kts | 281° |
| 2026-05-03 22:19 | 49.19767 | -123.13602 | 335 ft | 146 kts | 282° |
| 2026-05-03 22:19 | 49.19941 | -123.15100 | 160 ft | 140 kts | 281° |
| 2026-05-03 22:19 | 49.20108 | -123.16516 | 16 ft | 131 kts | 282° |
| 2026-05-03 22:20 | 49.20237 | -123.17619 | 18 ft | 73 kts | 281° |
| 2026-05-03 22:20 | 49.20313 | -123.18278 | 19 ft | 61 kts | 281° |
| 2026-05-03 22:20 | 49.20391 | -123.18954 | 19 ft | 53 kts | 276° |
| 2026-05-03 22:20 | 49.20364 | -123.19306 | 20 ft | 18 kts | 251° |
| 2026-05-03 22:21 | 49.20351 | -123.19367 | 20 ft | 0 kts | 251° |
| 2026-05-03 22:22 | 49.20347 | -123.19388 | 20 ft | 4 kts | 251° |
| 2026-05-03 22:22 | 49.20336 | -123.19431 | 20 ft | 3 kts | 251° |
| 2026-05-03 22:22 | 49.20330 | -123.19460 | 20 ft | 2 kts | 250° |
| 2026-05-03 22:23 | 49.20325 | -123.19479 | 20 ft | 2 kts | 250° |
| 2026-05-03 22:23 | 49.20314 | -123.19525 | 20 ft | 4 kts | 250° |
| 2026-05-03 22:23 | 49.20308 | -123.19552 | 20 ft | 1 kts | 250° |
| 2026-05-03 22:23 | 49.20291 | -123.19592 | 20 ft | 11 kts | 213° |
| 2026-05-03 22:24 | 49.20242 | -123.19513 | 20 ft | 12 kts | 106° |
| 2026-05-03 22:24 | 49.20224 | -123.19379 | 20 ft | 13 kts | 100° |
| 2026-05-03 22:24 | 49.20207 | -123.19233 | 19 ft | 14 kts | 99° |
| 2026-05-03 22:24 | 49.20189 | -123.19089 | 18 ft | 13 kts | 111° |
| 2026-05-03 22:25 | 49.20113 | -123.19041 | 18 ft | 12 kts | 187° |
| 2026-05-03 22:25 | 49.20029 | -123.19060 | 18 ft | 11 kts | 188° |
| 2026-05-03 22:25 | 49.19952 | -123.19080 | 18 ft | 10 kts | 191° |
| 2026-05-03 22:25 | 49.19881 | -123.19102 | 18 ft | 9 kts | 190° |
| 2026-05-03 22:26 | 49.19809 | -123.19120 | 18 ft | 11 kts | 189° |
| 2026-05-03 22:26 | 49.19735 | -123.19141 | 17 ft | 10 kts | 190° |
| 2026-05-03 22:26 | 49.19684 | -123.19154 | 17 ft | 0 kts | 190° |
| 2026-05-03 22:27 | 49.19668 | -123.19159 | 17 ft | 8 kts | 190° |
| 2026-05-03 22:27 | 49.19595 | -123.19176 | 17 ft | 10 kts | 186° |
| 2026-05-03 22:27 | 49.19530 | -123.19137 | 17 ft | 10 kts | 142° |
| 2026-05-03 22:28 | 49.19465 | -123.19060 | 17 ft | 13 kts | 142° |
| 2026-05-03 22:28 | 49.19394 | -123.18973 | 17 ft | 12 kts | 142° |
| 2026-05-03 22:28 | 49.19322 | -123.18890 | 18 ft | 15 kts | 143° |
| 2026-05-03 22:28 | 49.19222 | -123.18769 | 18 ft | 13 kts | 142° |
| 2026-05-03 22:29 | 49.19156 | -123.18688 | 18 ft | 14 kts | 139° |
| 2026-05-03 22:29 | 49.19154 | -123.18568 | 18 ft | 10 kts | 71° |
| 2026-05-03 22:29 | 49.19140 | -123.18449 | 18 ft | 13 kts | 97° |
| 2026-05-03 22:29 | 49.19134 | -123.18282 | 19 ft | 17 kts | 99° |
| 2026-05-03 22:30 | 49.19136 | -123.18171 | 19 ft | 0 kts | 9° |
| 2026-05-03 22:30 | 49.19152 | -123.18164 | 19 ft | 4 kts | 15° |
| 2026-05-03 22:30 | 49.19171 | -123.18159 | 19 ft | 3 kts | 7° |
| 2026-05-03 22:30 | 49.19176 | -123.18158 | 19 ft | 0 kts | 8° |
| 2026-05-03 22:31 | 49.19178 | -123.18157 | 19 ft | 0 kts | 8° |
| 2026-05-03 22:31 | 49.19179 | -123.18157 | 19 ft | 0 kts | 9° |